Time;durP1;ratioP1;P1;durP2;ratioP2;P2;SDS_P1;SDS_P2;PMS_P1;PMS_P2;Temp;Humidity;BMP_temperature;BMP_pressure;BME280_temperature;BME280_humidity;BME280_pressure;Samples;Min_cycle;Max_cycle;Signal;HPM_P1;HPM_P2
2023/02/24 00:00:49;;;;;;;5.78;2.60;;;;;;;-1.23;100.00;100910.44;4973850;28;20038;-95
2023/02/24 00:03:15;;;;;;;9.60;2.97;;;;;;;-1.31;100.00;100925.66;4973681;28;20031;-96
2023/02/24 00:05:48;;;;;;;8.55;3.08;;;;;;;-1.34;100.00;100923.13;4973436;28;20366;-95
2023/02/24 00:08:14;;;;;;;7.78;3.67;;;;;;;-1.73;100.00;100881.81;4973496;28;20041;-95
2023/02/24 00:10:40;;;;;;;11.30;4.05;;;;;;;-1.65;100.00;100912.16;4973427;28;20027;-96
2023/02/24 00:13:06;;;;;;;7.50;3.97;;;;;;;-1.62;100.00;100911.31;4973365;28;20445;-95
2023/02/24 00:15:32;;;;;;;9.80;5.00;;;;;;;-1.96;100.00;100883.47;4973449;28;20078;-95
2023/02/24 00:17:57;;;;;;;20.52;6.43;;;;;;;-1.74;100.00;100905.41;4973370;28;20300;-95
2023/02/24 00:20:23;;;;;;;18.40;7.85;;;;;;;-1.75;100.00;100908.78;4973278;28;20057;-95
2023/02/24 00:22:49;;;;;;;16.30;9.27;;;;;;;-1.65;100.00;100917.22;4972713;28;20027;-95
2023/02/24 00:25:15;;;;;;;23.05;9.98;;;;;;;-1.81;100.00;100873.34;4973067;28;20027;-95
2023/02/24 00:27:41;;;;;;;17.85;8.98;;;;;;;-1.81;100.00;100880.94;4972489;28;20019;-95
2023/02/24 00:30:10;;;;;;;19.88;8.70;;;;;;;-1.97;100.00;100869.16;4973353;28;20030;-95
2023/02/24 00:32:35;;;;;;;22.63;8.52;;;;;;;-1.98;100.00;100880.91;4973507;28;20109;-95
2023/02/24 00:35:01;;;;;;;17.38;7.80;;;;;;;-2.05;100.00;100880.91;4972993;28;20073;-94
2023/02/24 00:37:28;;;;;;;17.08;7.45;;;;;;;-2.13;100.00;100885.13;4973209;28;20030;-95
2023/02/24 00:39:57;;;;;;;12.70;6.50;;;;;;;-2.09;100.00;100889.34;4973168;28;20031;-95
2023/02/24 00:42:23;;;;;;;13.77;6.10;;;;;;;-2.37;100.00;100862.31;4972995;28;20066;-95
2023/02/24 00:44:52;;;;;;;15.27;6.80;;;;;;;-2.31;100.00;100868.25;4972871;28;20030;-95
2023/02/24 00:47:18;;;;;;;18.23;6.97;;;;;;;-2.47;100.00;100857.25;4973054;28;20018;-95
2023/02/24 00:49:44;;;;;;;20.17;8.73;;;;;;;-2.37;100.00;100874.09;4972709;28;20081;-94
2023/02/24 00:52:14;;;;;;;16.17;7.22;;;;;;;-2.36;100.00;100880.88;4972861;28;20041;-95
2023/02/24 00:54:44;;;;;;;16.67;7.57;;;;;;;-2.31;100.00;100858.13;4972334;28;20035;-96
2023/02/24 00:57:11;;;;;;;21.42;9.00;;;;;;;-2.44;100.00;100824.38;4972768;28;20113;-94
2023/02/24 00:59:37;;;;;;;19.90;8.32;;;;;;;-2.20;100.00;100831.16;4973017;28;20062;-95
2023/02/24 01:02:05;;;;;;;19.38;8.48;;;;;;;-2.02;100.00;100830.34;4973000;28;20058;-95
2023/02/24 01:04:31;;;;;;;17.85;7.75;;;;;;;-2.01;100.00;100816.84;4972834;28;20385;-95
2023/02/24 01:07:00;;;;;;;12.98;7.18;;;;;;;-2.27;100.00;100817.66;4972690;28;20030;-95
2023/02/24 01:09:29;;;;;;;17.58;7.78;;;;;;;-2.11;100.00;100855.63;4972607;28;20030;-95
2023/02/24 01:12:37;;;;;;;28.08;10.95;;;;;;;-2.52;100.00;100814.25;4972634;28;20081;-95
2023/02/24 01:14:48;;;;;;;22.63;8.50;;;;;;;-2.39;100.00;100810.94;4973530;28;20401;-95
2023/02/24 01:17:17;;;;;;;14.52;7.50;;;;;;;-2.38;100.00;100821.88;4973026;28;20027;-95
2023/02/24 01:19:43;;;;;;;18.10;9.30;;;;;;;-2.58;100.00;100792.34;4973093;28;20500;-96
2023/02/24 01:22:13;;;;;;;13.90;7.75;;;;;;;-2.43;100.00;100829.44;4972251;28;20023;-94
2023/02/24 01:24:41;;;;;;;17.95;7.68;;;;;;;-2.52;100.00;100824.38;4987642;28;20121;-94
2023/02/24 01:27:09;;;;;;;16.92;7.78;;;;;;;-2.51;100.00;100822.69;4972840;28;20022;-95
2023/02/24 01:29:38;;;;;;;22.50;8.07;;;;;;;-2.75;100.00;100786.44;4972712;28;20022;-95
2023/02/24 01:32:11;;;;;;;15.43;8.35;;;;;;;-2.80;100.00;100783.03;4972671;28;20428;-95
2023/02/24 01:34:37;;;;;;;16.17;8.68;;;;;;;-2.75;100.00;100791.47;4972610;28;20477;-95
2023/02/24 01:37:03;;;;;;;12.07;8.00;;;;;;;-2.74;100.00;100788.09;4972571;28;20030;-95
2023/02/24 01:39:29;;;;;;;18.00;8.63;;;;;;;-2.69;100.00;100790.63;4974765;28;20034;-95
2023/02/24 01:41:58;;;;;;;18.88;8.35;;;;;;;-2.82;100.00;100767.03;4976182;28;20042;-95
2023/02/24 01:44:25;;;;;;;14.82;8.68;;;;;;;-2.51;100.00;100810.91;4975728;28;20034;-95
2023/02/24 01:46:52;;;;;;;12.85;6.93;;;;;;;-2.75;100.00;100771.25;4975840;28;20081;-95
2023/02/24 01:49:38;;;;;;;13.23;5.82;;;;;;;-2.65;100.00;100774.66;4975826;28;20027;-95
2023/02/24 01:52:09;;;;;;;8.88;5.25;;;;;;;-2.48;100.00;100800.81;4975753;28;20392;-95
2023/02/24 01:54:41;;;;;;;14.88;7.18;;;;;;;-2.85;100.00;100749.34;4974978;28;20034;-95
2023/02/24 01:57:12;;;;;;;13.13;6.45;;;;;;;-2.73;100.00;100759.50;4991768;28;20031;-95
2023/02/24 01:59:39;;;;;;;;;;;;;;;-2.64;100.00;100789.81;4976323;28;20504;-95
2023/02/24 02:02:07;;;;;;;19.67;7.35;;;;;;;-2.72;100.00;100753.59;4975923;28;19914;-95
2023/02/24 02:04:43;;;;;;;15.80;8.10;;;;;;;-2.56;100.00;100789.84;4975714;28;20118;-94
2023/02/24 02:07:13;;;;;;;17.30;7.78;;;;;;;-2.72;100.00;100760.31;4975632;28;20038;-94
2023/02/24 02:09:45;;;;;;;15.38;7.25;;;;;;;-2.78;100.00;100740.94;4975492;28;20027;-94
2023/02/24 02:12:11;;;;;;;11.23;6.80;;;;;;;-2.75;100.00;100751.06;4975466;28;20035;-95
2023/02/24 02:14:46;;;;;;;13.50;6.82;;;;;;;-2.53;100.00;100776.38;4975586;28;20038;-95
2023/02/24 02:17:30;;;;;;;11.90;5.75;;;;;;;-2.45;100.00;100778.06;4975459;28;20030;-95
2023/02/24 02:20:19;;;;;;;10.18;5.78;;;;;;;-2.59;100.00;100751.91;4975354;28;20236;-95
2023/02/24 02:22:54;;;;;;;10.35;5.05;;;;;;;-2.44;100.00;100771.31;4975095;28;20081;-94
2023/02/24 02:26:01;;;;;;;15.25;5.32;;;;;;;-2.56;100.00;100756.13;4975410;28;20446;-96
2023/02/24 02:28:42;;;;;;;18.77;5.68;;;;;;;-2.28;100.00;100767.97;4962104;28;20042;-94
2023/02/24 02:31:35;;;;;;;16.23;6.78;;;;;;;-2.01;100.00;100767.09;4975357;28;20550;-95
2023/02/24 02:34:28;;;;;;;17.45;6.85;;;;;;;-1.85;100.00;100752.78;4975189;28;20037;-95
2023/02/24 02:36:57;;;;;;;19.30;7.00;;;;;;;-1.88;100.00;100747.69;4975049;28;20075;-93
2023/02/24 02:39:46;;;;;;;22.35;7.18;;;;;;;-2.01;100.00;100735.91;4975004;28;20030;-95
2023/02/24 02:42:23;;;;;;;14.50;6.30;;;;;;;-1.95;100.00;100705.56;4975287;28;20030;-96
2023/02/24 02:45:07;;;;;;;18.30;8.52;;;;;;;-1.56;100.00;100755.25;4974806;28;20031;-94
2023/02/24 02:47:42;;;;;;;18.50;7.07;;;;;;;-1.83;100.00;100720.72;4975234;28;20537;-95
2023/02/24 02:50:17;;;;;;;21.02;7.65;;;;;;;-1.73;100.00;100737.56;4974152;28;20073;-96
2023/02/24 02:53:01;;;;;;;15.43;6.57;;;;;;;-1.51;100.00;100737.50;4974155;28;20034;-94
2023/02/24 02:55:42;;;;;;;16.15;6.55;;;;;;;-1.21;100.00;100738.25;4974534;28;20022;-93
2023/02/24 02:58:14;;;;;;;13.25;6.20;;;;;;;-1.34;100.00;100695.25;4974804;28;20022;-96
2023/02/24 03:01:02;;;;;;;24.83;7.50;;;;;;;-1.26;100.00;100696.91;4955478;29;20032;-95
2023/02/24 03:03:36;;;;;;;18.27;6.55;;;;;;;-1.24;100.00;100685.06;4955246;28;20027;-95
2023/02/24 03:06:04;;;;;;;18.05;6.47;;;;;;;-1.04;100.00;100708.59;4955272;29;20386;-95
2023/02/24 03:08:36;;;;;;;18.48;6.88;;;;;;;-1.08;100.00;100668.94;4954852;29;20109;-95
2023/02/24 03:11:05;;;;;;;12.07;5.72;;;;;;;-1.04;100.00;100662.16;4955336;29;20038;-96
2023/02/24 03:13:36;;;;;;;18.85;6.65;;;;;;;-0.83;100.00;100651.88;4955173;28;20074;-95
2023/02/24 03:16:05;;;;;;;26.58;8.30;;;;;;;-0.66;100.00;100674.56;4955093;29;20521;-94
2023/02/24 03:18:36;;;;;;;22.42;9.73;;;;;;;-0.62;100.00;100672.84;4954948;29;20456;-94
2023/02/24 03:21:10;;;;;;;17.90;7.65;;;;;;;-0.60;100.00;100672.00;4954739;29;20076;-95
2023/02/24 03:23:51;;;;;;;18.85;8.02;;;;;;;-0.66;100.00;100646.69;4970156;28;20035;-94
2023/02/24 03:26:29;;;;;;;22.58;6.75;;;;;;;-0.47;100.00;100681.16;4974263;28;20601;-96
2023/02/24 03:29:22;;;;;;;21.83;8.45;;;;;;;-0.34;100.00;100676.00;4974139;28;20038;-95
2023/02/24 03:31:53;;;;;;;18.38;7.40;;;;;;;-0.48;100.00;100663.44;4973912;28;20555;-95
2023/02/24 03:34:36;;;;;;;15.93;7.28;;;;;;;-0.29;100.00;100677.66;4974225;28;20027;-95
2023/02/24 03:37:02;;;;;;;15.75;7.18;;;;;;;-0.35;100.00;100648.97;4973960;28;20505;-96
2023/02/24 03:39:28;;;;;;;15.98;6.63;;;;;;;-0.48;100.00;100633.03;4974039;28;20045;-95
2023/02/24 03:42:05;;;;;;;15.32;6.65;;;;;;;-0.35;100.00;100638.81;4973509;28;20031;-95
2023/02/24 03:44:31;;;;;;;15.85;6.88;;;;;;;-0.23;100.00;100646.31;4973703;28;20030;-95
2023/02/24 03:46:57;;;;;;;13.18;5.78;;;;;;;-0.03;100.00;100641.84;4973850;28;20070;-95
2023/02/24 03:49:24;;;;;;;14.68;6.38;;;;;;;-0.12;100.00;100619.16;4973995;28;20027;-95
2023/02/24 03:51:55;;;;;;;23.60;7.32;;;;;;;0.01;100.00;100645.22;4973555;28;20062;-95
2023/02/24 03:54:21;;;;;;;;;;;;;;;0.03;100.00;100640.13;4974569;28;20536;-96
2023/02/24 03:57:07;;;;;;;13.43;5.82;;;;;;;0.14;100.00;100634.06;4973567;28;19914;-95
2023/02/24 03:59:48;;;;;;;11.13;5.90;;;;;;;0.02;100.00;100601.22;4973411;28;20031;-94
2023/02/24 04:02:23;;;;;;;15.63;6.78;;;;;;;-0.01;100.00;100608.88;4973364;28;20374;-94
2023/02/24 04:05:12;;;;;;;11.00;6.63;;;;;;;0.25;100.00;100635.66;4973396;28;20034;-96
2023/02/24 04:07:44;;;;;;;15.13;7.00;;;;;;;0.29;100.00;100629.66;4973573;28;20037;-96
2023/02/24 04:10:19;;;;;;;15.23;6.97;;;;;;;0.07;100.00;100586.78;4973698;28;20037;-96
2023/02/24 04:13:00;;;;;;;16.95;6.80;;;;;;;0.09;100.00;100604.53;4972678;28;20125;-96
2023/02/24 04:15:42;;;;;;;17.83;7.03;;;;;;;0.13;100.00;100590.94;4973508;28;20510;-96
2023/02/24 04:18:34;;;;;;;16.05;7.28;;;;;;;0.18;100.00;100584.94;4973474;28;20580;-96
2023/02/24 04:21:01;;;;;;;;;;;;;;;0.43;100.00;100618.47;4971175;28;20042;-96
2023/02/24 04:23:37;;;;;;;13.25;5.30;;;;;;;0.32;100.00;100589.88;4973313;28;19921;-94
2023/02/24 04:26:05;;;;;;;17.70;4.10;;;;;;;0.40;100.00;100584.69;4973355;28;20023;-96
2023/02/24 04:28:31;;;;;;;11.27;3.88;;;;;;;0.40;100.00;100561.84;4973425;28;20085;-93
2023/02/24 04:31:04;;;;;;;10.25;2.50;;;;;;;0.76;100.00;100593.50;4973065;28;20030;-94
2023/02/24 04:33:32;;;;;;;8.45;2.25;;;;;;;0.75;100.00;100555.41;4973175;28;20026;-96
2023/02/24 04:35:57;;;;;;;7.00;1.88;;;;;;;1.01;96.05;100575.31;4973228;28;20020;-96
2023/02/24 04:38:24;;;;;;;10.10;2.85;;;;;;;1.00;95.49;100559.25;4973177;28;20019;-96
2023/02/24 04:40:49;;;;;;;5.22;1.75;;;;;;;1.17;93.14;100553.88;4973054;28;20089;-94
2023/02/24 04:43:15;;;;;;;6.93;2.30;;;;;;;1.23;92.82;100558.84;4972058;28;20055;-96
2023/02/24 04:45:42;;;;;;;6.70;2.42;;;;;;;1.43;92.55;100580.56;4973116;28;20034;-95
2023/02/24 04:48:11;;;;;;;5.28;1.60;;;;;;;1.26;92.36;100543.53;4973151;28;20026;-96
2023/02/24 04:50:40;;;;;;;4.78;1.60;;;;;;;1.49;91.22;100572.84;4973147;28;20393;-96
2023/02/24 04:53:10;;;;;;;7.90;1.95;;;;;;;1.45;90.86;100548.31;4972803;28;20492;-96
2023/02/24 04:55:39;;;;;;;4.63;1.90;;;;;;;1.63;89.31;100580.19;4972933;28;20030;-96
2023/02/24 04:58:12;;;;;;;7.82;1.95;;;;;;;1.47;89.17;100541.50;4972987;28;20034;-96
2023/02/24 05:00:40;;;;;;;6.35;1.83;;;;;;;1.51;88.91;100532.91;4972742;28;20038;-96
2023/02/24 05:03:09;;;;;;;8.93;2.08;;;;;;;1.54;88.02;100522.72;4972726;28;20023;-95
2023/02/24 05:05:35;;;;;;;7.05;1.70;;;;;;;1.68;87.74;100536.00;4972629;28;20027;-96
2023/02/24 05:08:07;;;;;;;9.73;1.85;;;;;;;1.84;86.74;100543.34;4972716;28;20097;-95
2023/02/24 05:10:40;;;;;;;9.30;1.98;;;;;;;1.97;86.24;100559.19;4972542;28;20038;-96
2023/02/24 05:13:07;;;;;;;6.57;2.38;;;;;;;1.88;86.17;100543.25;4972297;28;20045;-95
2023/02/24 05:15:37;;;;;;;8.52;2.45;;;;;;;1.95;84.80;100533.75;4976595;28;20031;-96
2023/02/24 05:18:08;;;;;;;12.07;2.60;;;;;;;1.89;85.92;100518.63;4976564;28;20034;-96
2023/02/24 05:23:28;;;;;;;6.40;2.22;;;;;;;1.89;87.11;100513.53;4977650;28;20042;-96
2023/02/24 05:25:54;;;;;;;6.85;2.08;;;;;;;2.02;87.35;100542.94;4976357;28;20057;-96
2023/02/24 05:28:24;;;;;;;10.30;2.20;;;;;;;1.88;87.43;100511.88;4976460;28;20030;-96
2023/02/24 05:30:50;;;;;;;6.22;2.33;;;;;;;1.97;87.32;100510.81;4976464;28;20482;-96
2023/02/24 05:33:20;;;;;;;10.65;2.95;;;;;;;1.98;88.50;100528.63;4976181;28;20038;-96
2023/02/24 05:35:52;;;;;;;11.25;1.92;;;;;;;1.99;89.27;100530.28;4976143;28;20027;-96
2023/02/24 05:38:18;;;;;;;8.18;1.90;;;;;;;2.09;89.07;100534.31;4976471;28;20039;-96
2023/02/24 05:40:47;;;;;;;8.27;2.10;;;;;;;2.12;89.45;100541.91;4976488;28;20031;-95
2023/02/24 05:43:17;;;;;;;8.07;2.13;;;;;;;1.96;89.67;100497.28;4975581;28;20098;-96
2023/02/24 05:45:46;;;;;;;8.82;2.17;;;;;;;2.18;89.59;100514.63;4976159;28;20033;-95
2023/02/24 05:48:15;;;;;;;8.57;2.22;;;;;;;2.08;90.09;100491.91;4976048;28;20378;-96
2023/02/24 05:50:45;;;;;;;11.18;2.28;;;;;;;1.86;91.01;100476.25;4975996;28;20094;-96
2023/02/24 05:53:12;;;;;;;5.45;1.45;;;;;;;1.86;91.07;100477.97;4975776;28;20019;-95
2023/02/24 05:55:38;;;;;;;7.07;1.75;;;;;;;1.86;92.12;100508.53;4976020;28;20027;-96
2023/02/24 05:58:06;;;;;;;6.20;1.70;;;;;;;1.73;92.26;100494.34;4976070;28;20234;-96
2023/02/24 06:00:32;;;;;;;3.78;1.60;;;;;;;1.64;92.38;100480.94;4976545;28;20027;-95
2023/02/24 06:03:07;;;;;;;6.45;1.98;;;;;;;1.58;92.50;100488.69;4976034;28;20019;-96
2023/02/24 06:05:34;;;;;;;7.32;1.95;;;;;;;1.28;92.94;100447.72;4976002;28;20027;-96
2023/02/24 06:08:03;;;;;;;6.20;1.88;;;;;;;1.36;94.77;100462.00;4976006;28;20519;-95
2023/02/24 06:10:33;;;;;;;6.68;1.83;;;;;;;1.17;95.22;100439.50;4975670;28;20062;-95
2023/02/24 06:13:01;;;;;;;7.97;2.15;;;;;;;1.22;97.22;100470.75;4974872;28;20034;-95
2023/02/24 06:15:27;;;;;;;4.35;1.88;;;;;;;0.95;97.42;100430.56;4975543;28;20026;-95
2023/02/24 06:17:56;;;;;;;11.38;2.58;;;;;;;1.11;97.85;100471.81;4975811;28;20033;-96
2023/02/24 06:20:25;;;;;;;8.48;2.03;;;;;;;0.92;98.11;100445.88;4975832;28;20109;-95
2023/02/24 06:22:53;;;;;;;5.18;1.95;;;;;;;0.65;99.77;100422.63;4975400;28;20043;-95
2023/02/24 06:25:23;;;;;;;4.47;2.03;;;;;;;0.71;100.00;100450.47;4974215;28;20033;-95
2023/02/24 06:27:54;;;;;;;9.43;2.20;;;;;;;0.82;100.00;100475.69;4975353;28;20451;-95
2023/02/24 06:30:25;;;;;;;4.32;1.88;;;;;;;0.68;100.00;100457.28;4975918;28;20018;-96
2023/02/24 06:32:52;;;;;;;7.00;2.05;;;;;;;0.53;100.00;100427.91;4976132;28;20057;-96
2023/02/24 06:35:19;;;;;;;7.68;2.08;;;;;;;0.58;100.00;100441.34;4975248;28;20034;-96
2023/02/24 06:37:46;;;;;;;4.53;2.03;;;;;;;0.60;100.00;100445.53;4975014;28;20121;-96
2023/02/24 06:40:15;;;;;;;5.32;2.08;;;;;;;0.69;100.00;100464.06;4975070;28;20034;-96
2023/02/24 06:42:45;;;;;;;5.80;1.30;;;;;;;0.58;100.00;100457.44;4973635;28;20034;-96
2023/02/24 06:45:11;;;;;;;8.23;1.88;;;;;;;0.66;100.00;100466.63;4987878;28;20118;-96
2023/02/24 06:47:37;;;;;;;9.35;2.22;;;;;;;0.13;100.00;100431.91;4955681;29;20031;-96
2023/02/24 06:50:08;;;;;;;10.13;2.60;;;;;;;0.14;100.00;100441.19;4955484;29;20500;-95
2023/02/24 06:52:35;;;;;;;4.47;1.95;;;;;;;0.12;100.00;100457.28;4955469;29;20031;-96
2023/02/24 06:55:03;;;;;;;7.90;2.20;;;;;;;-0.05;100.00;100443.16;4955221;28;20031;-95
2023/02/24 06:57:33;;;;;;;8.93;2.28;;;;;;;-0.24;100.00;100436.66;4955562;29;20051;-96
2023/02/24 07:00:15;;;;;;;6.95;2.10;;;;;;;-0.14;100.00;100455.97;4955387;29;20505;-96
2023/02/24 07:02:40;;;;;;;5.15;1.80;;;;;;;-0.41;100.00;100431.78;4955343;28;20027;-96
2023/02/24 07:05:13;;;;;;;6.65;2.72;;;;;;;-0.54;100.00;100408.28;4955174;28;20028;-96
2023/02/24 07:07:44;;;;;;;7.03;2.58;;;;;;;-0.39;100.00;100414.88;4955154;29;20490;-96
2023/02/24 07:10:12;;;;;;;5.50;4.13;;;;;;;0.05;100.00;100445.53;4959037;28;20031;-96
2023/02/24 07:12:40;;;;;;;6.80;2.72;;;;;;;0.08;100.00;100415.06;4974664;28;20035;-96
2023/02/24 07:15:07;;;;;;;10.15;2.28;;;;;;;0.28;100.00;100420.69;4974519;28;20030;-96
2023/02/24 07:17:32;;;;;;;8.27;2.20;;;;;;;0.35;100.00;100414.63;4974294;28;20022;-96
2023/02/24 07:20:09;;;;;;;6.38;2.00;;;;;;;0.43;100.00;100400.09;4974392;28;20114;-96
2023/02/24 07:22:35;;;;;;;9.35;2.17;;;;;;;0.69;100.00;100398.84;4974678;28;20113;-96
2023/02/24 07:25:01;;;;;;;14.65;2.38;;;;;;;1.03;100.00;100426.19;4974286;28;20126;-96
2023/02/24 07:27:26;;;;;;;7.57;1.75;;;;;;;0.94;100.00;100398.41;4974215;28;20472;-96
2023/02/24 07:29:52;;;;;;;10.27;2.20;;;;;;;1.04;100.00;100410.06;4974145;28;20027;-96
2023/02/24 07:32:21;;;;;;;9.30;2.05;;;;;;;1.15;100.00;100413.25;4973826;28;20027;-95
2023/02/24 07:34:46;;;;;;;5.30;2.80;;;;;;;1.11;100.00;100405.72;4974180;28;20481;-96
2023/02/24 07:37:12;;;;;;;5.63;2.05;;;;;;;1.25;100.00;100422.38;4973862;28;20092;-96
2023/02/24 07:39:39;;;;;;;7.03;2.40;;;;;;;1.34;100.00;100416.28;4973578;28;20123;-96
2023/02/24 07:42:07;;;;;;;6.15;2.40;;;;;;;1.40;100.00;100405.97;4971859;28;20077;-96
2023/02/24 07:44:33;;;;;;;4.90;2.20;;;;;;;1.54;100.00;100400.63;4972888;28;20092;-96
2023/02/24 07:46:59;;;;;;;8.48;2.05;;;;;;;1.67;100.00;100406.28;4973773;28;20596;-96
2023/02/24 07:49:26;;;;;;;6.82;2.00;;;;;;;1.89;100.00;100429.53;4973666;28;20180;-96
2023/02/24 07:51:56;;;;;;;9.38;2.38;;;;;;;1.90;100.00;100414.25;4973674;28;20023;-96
2023/02/24 07:54:24;;;;;;;8.35;1.70;;;;;;;2.18;100.00;100428.06;4973687;28;20023;-96
2023/02/24 07:56:58;;;;;;;6.22;2.03;;;;;;;2.02;100.00;100390.22;4973615;28;20026;-96
2023/02/24 07:59:29;;;;;;;9.45;2.20;;;;;;;2.20;100.00;100408.50;4973734;28;20198;-96
2023/02/24 08:01:55;;;;;;;6.90;1.60;;;;;;;2.33;100.00;100402.22;4973471;28;20486;-96
2023/02/24 08:04:25;;;;;;;11.38;2.33;;;;;;;2.38;99.40;100385.13;4973571;28;20046;-96
2023/02/24 08:06:55;;;;;;;14.45;2.20;;;;;;;2.50;99.43;100379.72;4989679;28;20473;-95
2023/02/24 08:10:08;;;;;;;6.00;1.98;;;;;;;2.77;96.88;100392.63;4972958;28;20031;-96
2023/02/24 08:12:16;;;;;;;7.15;1.65;;;;;;;2.89;97.56;100377.03;4972039;28;20038;-96
2023/02/24 08:14:48;;;;;;;13.23;2.25;;;;;;;3.08;95.52;100371.44;4973264;28;20022;-96
2023/02/24 08:17:18;;;;;;;9.02;2.45;;;;;;;3.16;92.92;100359.28;4973305;28;20027;-96
2023/02/24 08:19:47;;;;;;;5.05;1.80;;;;;;;3.49;90.86;100390.66;4973115;28;20059;-96
2023/02/24 08:22:19;;;;;;;10.18;2.38;;;;;;;3.62;89.57;100383.47;4970213;28;20366;-96
2023/02/24 08:24:59;;;;;;;4.75;2.15;;;;;;;3.87;87.63;100378.47;4956312;28;20027;-96
2023/02/24 08:27:30;;;;;;;8.15;2.80;;;;;;;3.97;87.34;100364.53;4969588;28;20023;-96
2023/02/24 08:29:57;;;;;;;9.57;2.70;;;;;;;4.39;86.27;100406.63;4953835;28;20027;-95
2023/02/24 08:32:42;;;;;;;8.93;2.53;;;;;;;4.28;86.08;100368.66;4960156;28;20129;-96
2023/02/24 08:35:15;;;;;;;8.63;2.08;;;;;;;4.43;86.19;100380.09;4986241;28;20037;-96
2023/02/24 08:37:49;;;;;;;12.40;2.78;;;;;;;4.53;86.64;100389.13;4952929;28;20098;-94
2023/02/24 08:43:31;;;;;;;4.75;1.83;;;;;;;4.40;86.88;100373.38;4961441;28;20437;-96
2023/02/24 08:46:12;;;;;;;10.23;2.22;;;;;;;4.39;84.41;100411.75;4959708;28;20058;-96
2023/02/24 08:48:48;;;;;;;8.48;2.35;;;;;;;4.02;85.60;100378.00;4968889;28;20023;-96
2023/02/24 08:51:33;;;;;;;7.78;2.63;;;;;;;4.07;84.42;100365.94;4959571;28;20057;-96
2023/02/24 08:54:02;;;;;;;7.55;2.20;;;;;;;4.28;83.23;100366.13;4959638;28;20035;-96
2023/02/24 08:56:33;;;;;;;14.57;2.22;;;;;;;4.44;83.48;100369.00;4965448;28;20027;-96
2023/02/24 08:59:05;;;;;;;13.65;2.80;;;;;;;4.58;83.96;100382.13;4965711;28;20018;-96
2023/02/24 09:01:37;;;;;;;8.98;2.22;;;;;;;4.43;83.31;100352.00;4969258;28;20109;-96
2023/02/24 09:04:07;;;;;;;7.05;2.03;;;;;;;4.56;82.16;100373.72;4958786;28;20023;-96
2023/02/24 09:06:56;;;;;;;12.23;2.30;;;;;;;4.58;81.84;100361.69;4965936;28;20474;-96
2023/02/24 09:09:23;;;;;;;7.22;2.05;;;;;;;4.83;82.32;100364.25;4970304;28;20113;-96
2023/02/24 09:11:57;;;;;;;7.03;2.15;;;;;;;4.89;84.55;100353.81;4958003;28;20036;-96
2023/02/24 09:14:28;;;;;;;7.75;2.28;;;;;;;5.01;84.38;100356.81;4964721;28;20058;-96
2023/02/24 09:17:04;;;;;;;11.13;2.42;;;;;;;4.95;83.24;100339.97;4972830;28;20106;-96
2023/02/24 09:22:14;;;;;;;13.40;2.58;;;;;;;5.43;82.91;100346.72;4958233;28;20023;-96
2023/02/24 09:24:45;;;;;;;12.57;2.05;;;;;;;5.57;82.29;100324.00;4963470;28;20023;-95
2023/02/24 09:27:16;;;;;;;8.38;2.58;;;;;;;5.87;82.62;100344.19;4973201;28;20026;-96
2023/02/24 09:29:48;;;;;;;6.00;2.73;;;;;;;6.11;81.10;100303.97;4960201;28;20034;-96
2023/02/24 09:32:14;;;;;;;6.40;2.53;;;;;;;6.38;81.89;100330.19;4967931;28;20367;-95
2023/02/24 09:34:46;;;;;;;10.18;2.25;;;;;;;6.46;80.71;100308.50;4956732;28;20126;-95
2023/02/24 09:37:26;;;;;;;9.20;3.00;;;;;;;6.64;81.28;100308.56;4958708;28;20043;-95
2023/02/24 09:42:45;;;;;;;9.13;2.65;;;;;;;6.97;81.17;100319.97;4959772;28;20038;-94
2023/02/24 09:45:31;;;;;;;5.95;2.03;;;;;;;7.17;79.34;100295.97;4968213;28;20492;-96
2023/02/24 09:48:03;;;;;;;6.78;2.70;;;;;;;7.27;78.91;100310.91;4953745;28;20043;-94
2023/02/24 09:50:44;;;;;;;9.40;2.95;;;;;;;7.01;80.63;100301.00;4963325;28;20026;-96
2023/02/24 09:53:16;;;;;;;8.25;2.45;;;;;;;7.49;79.86;100312.50;4968261;28;20030;-96
2023/02/24 09:55:59;;;;;;;9.23;3.08;;;;;;;7.74;78.31;100316.47;4965600;28;20106;-95
2023/02/24 09:58:57;;;;;;;6.63;2.40;;;;;;;7.89;77.13;100311.41;4964205;28;20477;-96
2023/02/24 10:01:35;;;;;;;6.40;1.80;;;;;;;7.83;76.76;100305.75;4972446;28;20027;-96
2023/02/24 10:04:26;;;;;;;10.95;2.20;;;;;;;7.96;76.84;100322.25;4971991;28;20353;-95
2023/02/24 10:07:03;;;;;;;10.77;3.28;;;;;;;7.69;77.35;100284.13;4963119;28;20474;-95
2023/02/24 10:09:38;;;;;;;11.65;2.75;;;;;;;7.74;78.78;100317.28;4971101;28;20033;-95
2023/02/24 10:12:20;;;;;;;8.27;2.50;;;;;;;8.02;78.04;100324.53;4964916;28;20568;-95
2023/02/24 10:16:13;;;;;;;10.85;2.25;;;;;;;7.98;77.79;100325.56;4964175;28;20031;-96
2023/02/24 10:18:39;;;;;;;8.30;2.60;;;;;;;7.89;77.60;100297.75;4966095;28;20031;-95
2023/02/24 10:21:47;;;;;;;5.93;1.95;;;;;;;7.98;78.00;100293.91;4936034;28;20281;-95
2023/02/24 10:24:28;;;;;;;9.27;3.05;;;;;;;7.94;78.21;100288.06;4973917;28;20035;-96
2023/02/24 10:27:08;;;;;;;9.05;2.28;;;;;;;8.36;77.63;100320.25;4987624;28;20030;-96
2023/02/24 10:29:46;;;;;;;12.23;2.25;;;;;;;8.51;78.10;100319.53;4974252;28;20035;-96
2023/02/24 10:32:37;;;;;;;15.82;3.25;;;;;;;8.56;77.04;100324.47;4974138;28;20088;-94
2023/02/24 10:35:02;;;;;;;15.93;2.75;;;;;;;8.47;77.25;100292.31;4970059;28;20089;-94
2023/02/24 10:37:29;;;;;;;7.90;2.05;;;;;;;8.92;75.45;100292.56;4963219;28;20027;-95
2023/02/24 10:40:12;;;;;;;8.10;2.28;;;;;;;9.07;75.16;100301.22;4973835;28;20117;-95
2023/02/24 10:42:47;;;;;;;15.40;5.28;;;;;;;9.94;71.36;100283.50;4973856;28;20034;-96
2023/02/24 10:45:23;;;;;;;8.05;2.80;;;;;;;11.45;65.25;100275.28;4970403;28;20038;-95
2023/02/24 10:47:59;;;;;;;9.88;2.42;;;;;;;12.98;60.86;100310.03;4974089;28;20532;-95
2023/02/24 10:50:30;;;;;;;7.43;2.45;;;;;;;13.05;60.16;100306.91;4971768;28;20074;-94
2023/02/24 10:55:52;;;;;;;8.90;3.22;;;;;;;14.36;53.91;100281.88;4976391;28;20031;-95
2023/02/24 10:58:48;;;;;;;10.18;2.60;;;;;;;12.57;58.75;100274.88;4968051;28;20054;-96
2023/02/24 11:01:19;;;;;;;8.85;2.33;;;;;;;11.94;61.40;100292.81;4974229;28;20134;-96
2023/02/24 11:04:00;;;;;;;11.23;2.67;;;;;;;11.34;63.31;100275.97;4987500;28;20050;-96
2023/02/24 11:06:51;;;;;;;9.73;2.75;;;;;;;10.75;65.05;100264.16;4961284;28;20035;-96
2023/02/24 11:18:07;;;;;;;8.05;2.92;;;;;;;9.85;69.60;100274.56;4974570;28;20150;-96
2023/02/24 11:20:53;;;;;;;11.18;3.25;;;;;;;10.09;68.85;100297.25;4973972;28;20030;-96
2023/02/24 11:23:33;;;;;;;9.73;2.60;;;;;;;9.77;70.21;100287.03;4970456;28;20035;-96
2023/02/24 11:26:05;;;;;;;13.25;2.95;;;;;;;9.27;72.03;100267.50;4968719;28;20059;-95
2023/02/24 11:28:52;;;;;;;9.63;2.65;;;;;;;9.59;71.76;100290.66;4962681;28;20066;-96
2023/02/24 11:31:40;;;;;;;10.38;2.80;;;;;;;9.38;72.80;100283.19;4972665;28;20095;-96
2023/02/24 11:34:10;;;;;;;10.70;2.90;;;;;;;9.57;71.64;100256.41;4970047;28;20047;-96
2023/02/24 11:36:48;;;;;;;13.50;4.18;;;;;;;9.68;72.24;100277.25;4975997;28;20118;-96
2023/02/24 11:39:36;;;;;;;9.15;3.15;;;;;;;9.89;71.11;100258.91;4978134;28;20030;-96
2023/02/24 11:42:10;;;;;;;16.23;3.17;;;;;;;10.19;70.26;100264.88;4979836;28;20117;-96
2023/02/24 11:45:52;;;;;;;;;;;;;;;;;;;;;
2023/02/24 11:48:18;;;;;;;10.23;2.88;;;;;;;10.08;70.39;100237.13;4924871;28;20044;-96
2023/02/24 11:51:22;;;;;;;11.10;3.13;;;;;;;10.23;70.02;100225.06;4943533;28;20043;-96
2023/02/24 11:53:57;;;;;;;10.05;3.03;;;;;;;10.69;69.95;100258.47;4985919;28;20090;-95
2023/02/24 11:56:31;;;;;;;10.50;2.80;;;;;;;10.54;69.66;100219.88;4973127;28;20118;-96
2023/02/24 11:59:21;;;;;;;14.23;3.30;;;;;;;10.70;68.51;100221.41;4963522;28;20027;-96
2023/02/24 12:02:18;;;;;;;11.07;3.13;;;;;;;10.66;68.73;100214.78;4951467;28;20074;-96
2023/02/24 12:05:08;;;;;;;13.40;3.67;;;;;;;11.56;67.99;100252.16;4918871;29;20047;-96
2023/02/24 12:07:40;;;;;;;10.35;3.03;;;;;;;11.53;66.55;100244.63;4971063;28;20058;-96
2023/02/24 12:10:29;;;;;;;9.10;3.25;;;;;;;11.50;66.78;100226.72;4974544;28;20465;-96
2023/02/24 12:13:19;;;;;;;13.20;2.50;;;;;;;11.55;67.22;100245.31;4974170;28;20043;-96
2023/02/24 12:16:16;;;;;;;10.73;2.58;;;;;;;11.49;66.72;100224.25;4972145;28;20488;-96